Time;durP1;ratioP1;P1;durP2;ratioP2;P2;SDS_P1;SDS_P2;PMS_P1;PMS_P2;Temp;Humidity;BMP_temperature;BMP_pressure;BME280_temperature;BME280_humidity;BME280_pressure;Samples;Min_cycle;Max_cycle;Signal;HPM_P1;HPM_P2
2022/01/27 00:05:45;;;;;;;65.60;25.27;;;;;;;0.72;91.68;100999.28;10380070;28;20057;-75
2022/01/27 00:11:29;;;;;;;65.55;25.67;;;;;;;0.78;91.17;101000.28;10345703;28;20412;-76
2022/01/27 00:16:21;;;;;;;71.18;26.20;;;;;;;0.74;90.82;101012.25;10373016;28;20058;-75
2022/01/27 00:21:25;;;;;;;57.33;24.52;;;;;;;0.73;90.57;101006.22;10379741;28;20052;-76
2022/01/27 00:26:27;;;;;;;69.22;25.08;;;;;;;0.81;90.51;100992.59;10361762;28;20046;-77
2022/01/27 00:31:29;;;;;;;62.15;25.35;;;;;;;0.86;89.68;100996.16;10360978;28;20473;-75
2022/01/27 00:36:32;;;;;;;59.03;26.90;;;;;;;0.79;89.58;100995.13;10379006;28;20050;-76
2022/01/27 00:41:34;;;;;;;71.00;27.02;;;;;;;0.75;90.49;100970.00;10377912;28;20042;-76
2022/01/27 00:46:36;;;;;;;63.58;25.50;;;;;;;0.73;89.61;100972.56;10360467;28;20057;-77
2022/01/27 00:51:42;;;;;;;69.13;26.52;;;;;;;0.85;89.06;100971.13;10360279;28;20054;-76
2022/01/27 01:01:52;;;;;;;73.93;27.65;;;;;;;0.89;87.41;100976.41;10377485;28;20048;-76
2022/01/27 01:06:54;;;;;;;63.85;25.63;;;;;;;0.87;87.39;100964.25;10360479;28;20100;-76
2022/01/27 01:32:51;;;;;;;66.80;24.25;;;;;;;0.89;87.10;100929.81;10388752;28;20049;-75
2022/01/27 01:37:54;;;;;;;58.55;23.73;;;;;;;0.88;87.45;100927.16;10385820;28;20046;-75
2022/01/27 01:42:56;;;;;;;47.58;21.52;;;;;;;0.84;87.52;100928.84;10386679;28;20411;-77
2022/01/27 01:47:57;;;;;;;49.72;21.90;;;;;;;0.85;87.48;100922.81;10368680;28;20087;-77
2022/01/27 01:52:59;;;;;;;46.53;20.10;;;;;;;0.93;86.75;100917.78;10367484;28;20057;-75
2022/01/27 01:58:02;;;;;;;64.40;23.13;;;;;;;0.90;86.87;100910.84;10385892;28;20041;-77
2022/01/27 02:03:03;;;;;;;46.55;21.02;;;;;;;0.94;86.25;100889.34;10367392;28;20545;-76
2022/01/27 02:18:45;;;;;;;42.88;19.80;;;;;;;0.95;85.68;100854.84;10383653;28;20034;-75
2022/01/27 02:23:47;;;;;;;31.10;18.40;;;;;;;0.96;84.93;100861.75;10383285;28;20054;-75
2022/01/27 02:28:49;;;;;;;35.85;19.30;;;;;;;1.05;84.43;100847.25;10365593;28;20042;-75
2022/01/27 02:33:57;;;;;;;40.17;18.85;;;;;;;0.97;84.57;100847.09;10383275;28;20108;-77
2022/01/27 02:39:01;;;;;;;38.60;19.40;;;;;;;0.91;84.44;100836.63;10363730;28;20430;-77
2022/01/27 02:44:04;;;;;;;46.83;20.90;;;;;;;0.89;85.01;100834.03;10382291;28;20062;-75
2022/01/27 02:49:05;;;;;;;48.00;20.63;;;;;;;0.92;85.04;100828.88;10383483;28;20038;-75
2022/01/27 02:54:07;;;;;;;38.67;19.05;;;;;;;1.00;84.42;100819.56;10381916;28;20061;-75
2022/01/27 02:59:09;;;;;;;34.58;17.95;;;;;;;0.99;83.96;100806.59;10382184;28;20045;-76
2022/01/27 03:04:11;;;;;;;31.73;18.17;;;;;;;0.95;84.12;100789.25;10382665;28;20158;-76
2022/01/27 03:09:13;;;;;;;35.35;19.45;;;;;;;0.99;83.34;100772.94;10384331;28;20500;-80
2022/01/27 03:14:20;;;;;;;36.80;19.38;;;;;;;0.97;83.15;100778.09;10369343;28;20056;-79
2022/01/27 03:19:22;;;;;;;32.55;18.23;;;;;;;1.01;83.01;100784.19;10394007;28;20048;-79
2022/01/27 03:24:25;;;;;;;40.50;20.75;;;;;;;1.01;83.00;100773.84;10395883;28;20491;-78
2022/01/27 03:29:28;;;;;;;44.17;21.33;;;;;;;0.99;83.09;100760.00;10357824;28;20407;-77
2022/01/27 03:34:29;;;;;;;51.78;22.50;;;;;;;0.87;83.69;100758.03;10388780;28;20064;-78
2022/01/27 03:39:31;;;;;;;50.38;23.23;;;;;;;0.93;83.59;100750.41;10387679;28;20042;-77
2022/01/27 03:44:34;;;;;;;48.05;22.67;;;;;;;0.96;83.40;100760.81;10387765;28;20083;-78
2022/01/27 03:49:36;;;;;;;45.00;21.20;;;;;;;0.88;84.37;100754.59;10371722;28;20100;-78
2022/01/27 03:54:39;;;;;;;44.33;21.20;;;;;;;0.91;84.28;100758.97;10388676;28;20068;-78
2022/01/27 03:59:40;;;;;;;41.20;20.83;;;;;;;0.93;84.27;100752.09;10386306;28;20491;-77
2022/01/27 04:04:42;;;;;;;44.20;20.83;;;;;;;0.79;84.85;100738.91;10385896;28;20048;-78
2022/01/27 04:09:43;;;;;;;40.60;19.10;;;;;;;0.93;83.91;100718.44;10385243;28;20037;-77
2022/01/27 04:14:45;;;;;;;35.33;19.27;;;;;;;0.94;84.05;100734.03;10368614;28;20045;-78
2022/01/27 04:19:47;;;;;;;48.28;21.80;;;;;;;0.91;84.51;100726.19;10386238;28;20046;-78
2022/01/27 04:24:49;;;;;;;54.67;21.05;;;;;;;1.04;83.53;100718.66;10371167;28;20073;-79
2022/01/27 04:29:50;;;;;;;50.28;22.23;;;;;;;1.12;83.39;100697.25;10390232;28;20038;-79
2022/01/27 04:34:54;;;;;;;43.00;19.80;;;;;;;1.24;82.37;100675.88;10384978;28;20484;-78
2022/01/27 04:40:06;;;;;;;44.97;21.70;;;;;;;1.14;83.17;100668.78;10368273;28;20038;-79
2022/01/27 04:45:10;;;;;;;38.28;19.60;;;;;;;1.18;82.70;100662.81;10385014;28;20046;-77
2022/01/27 04:50:11;;;;;;;44.90;20.88;;;;;;;1.24;82.43;100660.34;10388022;28;20042;-78
2022/01/27 04:55:15;;;;;;;42.97;19.52;;;;;;;1.23;82.19;100656.84;10390157;28;20065;-78
2022/01/27 05:00:18;;;;;;;39.40;18.55;;;;;;;1.26;82.17;100646.53;10390893;28;20403;-78
2022/01/27 05:05:21;;;;;;;40.28;19.58;;;;;;;1.35;82.15;100650.13;10388519;28;20534;-79
2022/01/27 05:10:32;;;;;;;45.97;20.15;;;;;;;1.29;82.82;100634.50;10369929;28;20381;-79
2022/01/27 05:15:43;;;;;;;33.80;17.88;;;;;;;1.31;82.68;100623.31;10386883;28;20140;-78
2022/01/27 05:20:44;;;;;;;33.00;18.98;;;;;;;1.27;82.98;100586.13;10373547;28;20414;-78
2022/01/27 05:25:46;;;;;;;23.80;17.13;;;;;;;1.36;82.06;100605.25;10372349;28;20050;-78
2022/01/27 05:30:48;;;;;;;21.52;16.27;;;;;;;1.26;82.69;100601.66;10385471;28;20408;-78
2022/01/27 05:35:49;;;;;;;25.40;14.70;;;;;;;1.37;81.19;100600.06;10382032;28;20058;-79
2022/01/27 05:40:51;;;;;;;18.38;15.40;;;;;;;1.35;81.34;100608.69;10367846;28;20038;-77
2022/01/27 05:45:53;;;;;;;18.67;13.57;;;;;;;1.40;81.28;100604.44;10384587;28;20050;-78
2022/01/27 05:50:54;;;;;;;20.30;14.27;;;;;;;1.44;81.20;100614.88;10364012;28;20049;-78
2022/01/27 05:55:57;;;;;;;16.10;14.40;;;;;;;1.44;80.65;100604.50;10383212;28;20052;-77
2022/01/27 06:00:58;;;;;;;20.55;15.45;;;;;;;1.39;80.91;100616.53;10380920;28;20523;-77
2022/01/27 06:06:00;;;;;;;16.20;14.52;;;;;;;1.45;81.04;100616.59;10378899;28;20049;-78
2022/01/27 06:11:02;;;;;;;18.67;14.43;;;;;;;1.40;80.20;100596.66;10382730;28;20064;-78
2022/01/27 06:16:09;;;;;;;16.88;14.93;;;;;;;1.57;79.11;100604.69;10385649;28;20057;-77
2022/01/27 06:21:13;;;;;;;16.55;14.93;;;;;;;1.52;79.80;100602.91;10369544;28;20459;-76
2022/01/27 06:26:14;;;;;;;15.35;13.80;;;;;;;1.58;78.94;100607.28;10386651;28;20046;-77
2022/01/27 06:31:16;;;;;;;14.48;12.75;;;;;;;1.58;78.50;100602.09;10387164;28;20076;-77
2022/01/27 06:36:19;;;;;;;15.15;13.80;;;;;;;1.39;79.38;100592.34;10394556;28;20512;-78
2022/01/27 06:41:20;;;;;;;14.63;13.32;;;;;;;1.46;79.45;100573.41;10372041;28;20046;-79
2022/01/27 06:46:23;;;;;;;15.70;14.10;;;;;;;1.45;78.99;100569.97;10390318;28;20065;-78
2022/01/27 06:51:26;;;;;;;17.15;15.43;;;;;;;1.45;79.49;100582.91;10394164;28;20080;-77
2022/01/27 06:56:28;;;;;;;15.77;13.63;;;;;;;1.50;78.43;100591.63;10372582;28;20474;-78
2022/01/27 07:01:30;;;;;;;15.40;13.90;;;;;;;1.51;78.42;100597.69;10391921;28;20085;-78
2022/01/27 07:06:34;;;;;;;14.70;13.00;;;;;;;1.60;77.73;100592.66;10372181;28;20117;-78
2022/01/27 07:11:36;;;;;;;15.38;13.98;;;;;;;1.41;78.81;100603.56;10393657;28;20038;-78
2022/01/27 07:16:38;;;;;;;15.35;13.85;;;;;;;1.52;78.27;100597.72;10392708;28;20049;-77
2022/01/27 07:21:40;;;;;;;17.60;14.23;;;;;;;1.57;77.61;100596.91;10429392;22;20057;-72
2022/01/27 07:26:42;;;;;;;17.85;14.77;;;;;;;1.42;78.59;100585.50;10418511;28;20169;-72
2022/01/27 07:31:44;;;;;;;17.58;15.25;;;;;;;1.61;77.83;100583.16;10420415;28;20045;-72
2022/01/27 07:36:46;;;;;;;17.00;15.48;;;;;;;1.49;78.24;100576.94;10402700;28;20053;-72
2022/01/27 07:41:47;;;;;;;15.80;14.35;;;;;;;1.59;77.15;100554.59;10400608;28;20095;-72
2022/01/27 07:46:49;;;;;;;17.25;15.50;;;;;;;1.46;78.38;100538.06;10418157;28;20053;-72
2022/01/27 07:51:51;;;;;;;15.98;14.25;;;;;;;1.64;76.38;100518.38;10417882;28;20041;-72
2022/01/27 07:56:52;;;;;;;16.02;14.48;;;;;;;1.71;75.62;100494.28;10418573;28;20072;-71
2022/01/27 08:01:54;;;;;;;14.27;12.98;;;;;;;1.69;75.31;100480.47;10417721;28;20045;-71
2022/01/27 08:06:56;;;;;;;16.10;14.60;;;;;;;1.38;76.86;100489.59;10418968;28;20046;-72
2022/01/27 08:11:58;;;;;;;15.27;13.88;;;;;;;1.60;75.02;100489.00;10402681;28;20103;-72
2022/01/27 08:17:00;;;;;;;15.60;14.27;;;;;;;1.54;75.83;100473.34;10401800;28;20548;-72
2022/01/27 08:22:02;;;;;;;15.32;13.93;;;;;;;1.65;74.88;100471.78;10418385;28;20099;-71
2022/01/27 08:27:06;;;;;;;16.35;14.77;;;;;;;1.55;75.54;100482.91;10399581;28;20087;-71
2022/01/27 08:32:34;;;;;;;17.55;15.70;;;;;;;1.86;73.83;100501.34;10416399;28;20049;-72
2022/01/27 08:37:36;;;;;;;15.75;14.18;;;;;;;1.75;73.32;100501.25;10382033;28;20064;-71
2022/01/27 08:42:40;;;;;;;14.95;13.43;;;;;;;1.90;72.41;100493.63;10398676;28;20099;-71
2022/01/27 08:47:44;;;;;;;16.90;13.90;;;;;;;1.88;73.65;100476.34;10416028;28;20049;-71
2022/01/27 08:52:46;;;;;;;15.48;13.82;;;;;;;1.87;71.76;100479.78;10416115;28;20073;-72
2022/01/27 08:57:49;;;;;;;14.63;13.30;;;;;;;1.77;72.43;100494.34;10416059;28;20582;-72
2022/01/27 09:02:50;;;;;;;15.75;14.15;;;;;;;1.92;71.56;100473.78;10419646;28;20099;-71
2022/01/27 09:07:55;;;;;;;16.13;14.52;;;;;;;1.90;72.59;100462.53;10414929;28;20156;-71
2022/01/27 09:12:58;;;;;;;16.02;14.48;;;;;;;2.00;70.64;100430.66;10415386;28;20045;-71
2022/01/27 09:18:00;;;;;;;14.75;13.45;;;;;;;2.00;71.13;100412.50;10416172;28;20129;-72
2022/01/27 09:23:02;;;;;;;17.92;14.10;;;;;;;2.10;70.63;100422.97;10397922;28;20041;-72
2022/01/27 09:28:04;;;;;;;16.85;15.15;;;;;;;2.01;70.59;100403.00;10398016;28;20075;-71
2022/01/27 09:33:06;;;;;;;15.52;14.02;;;;;;;2.17;69.88;100410.06;10415950;28;20048;-72
2022/01/27 09:38:08;;;;;;;16.35;14.85;;;;;;;2.27;68.96;100416.19;10382403;28;20060;-73
2022/01/27 09:43:09;;;;;;;17.15;15.57;;;;;;;2.21;69.16;100401.47;10418024;28;20107;-72
2022/01/27 09:48:14;;;;;;;15.13;13.73;;;;;;;2.21;68.42;100385.00;10423191;28;20054;-72
2022/01/27 09:53:16;;;;;;;15.88;14.38;;;;;;;2.27;69.25;100392.84;10424484;28;20057;-72
2022/01/27 09:58:17;;;;;;;17.35;15.43;;;;;;;2.24;68.74;100353.91;10423388;28;20049;-71
2022/01/27 10:03:19;;;;;;;16.88;15.32;;;;;;;2.20;68.49;100357.34;10405665;28;20132;-71
2022/01/27 10:08:21;;;;;;;16.98;15.25;;;;;;;2.15;68.80;100333.09;10422332;28;20049;-71
2022/01/27 10:13:38;;;;;;;17.75;16.05;;;;;;;2.27;68.13;100328.00;10422204;28;20057;-71
2022/01/27 10:18:40;;;;;;;17.43;14.87;;;;;;;2.38;68.29;100347.09;10405029;28;20442;-70
2022/01/27 10:23:51;;;;;;;18.80;17.00;;;;;;;2.47;67.96;100352.31;10422232;28;20064;-71
2022/01/27 10:29:08;;;;;;;17.17;15.38;;;;;;;2.47;67.45;100349.72;10422070;28;20045;-71
2022/01/27 10:34:10;;;;;;;15.77;14.23;;;;;;;2.55;66.81;100346.31;10403845;28;20045;-70
2022/01/27 10:39:16;;;;;;;17.33;15.57;;;;;;;2.60;66.67;100339.44;10404074;28;20041;-70
2022/01/27 10:44:18;;;;;;;16.67;14.95;;;;;;;2.59;66.98;100325.59;10420511;28;20065;-72
2022/01/27 10:49:28;;;;;;;16.23;14.63;;;;;;;2.56;67.25;100332.50;10420489;28;20042;-72
2022/01/27 10:54:39;;;;;;;17.95;15.55;;;;;;;2.45;68.40;100317.75;10423284;28;20048;-71
2022/01/27 10:59:42;;;;;;;21.02;15.32;;;;;;;2.64;67.98;100312.63;10420285;28;20081;-70
2022/01/27 11:04:44;;;;;;;15.80;14.23;;;;;;;2.69;67.90;100313.53;10422613;28;20042;-73
2022/01/27 11:09:47;;;;;;;16.88;15.15;;;;;;;2.76;68.06;100303.19;10405243;28;20140;-71
2022/01/27 11:14:50;;;;;;;15.95;14.43;;;;;;;2.75;68.03;100295.41;10425943;28;20049;-70
2022/01/27 11:30:34;;;;;;;15.95;14.23;;;;;;;2.82;68.61;100270.31;10421962;28;20038;-71
2022/01/27 11:35:36;;;;;;;17.90;16.30;;;;;;;2.71;69.63;100265.97;10405827;28;20425;-70
2022/01/27 11:40:43;;;;;;;15.60;14.00;;;;;;;2.88;68.87;100268.63;10422563;28;20045;-71
2022/01/27 11:45:49;;;;;;;28.42;16.85;;;;;;;2.77;70.31;100252.13;10421842;28;20049;-71
2022/01/27 11:51:14;;;;;;;17.88;16.15;;;;;;;2.81;70.61;100255.59;10424570;28;20471;-70
2022/01/27 11:56:29;;;;;;;20.67;15.60;;;;;;;2.82;70.02;100246.94;10404016;28;20396;-71
2022/01/27 12:01:34;;;;;;;17.02;15.40;;;;;;;2.79;70.81;100253.03;10402230;28;20163;-71
2022/01/27 12:06:40;;;;;;;17.58;15.77;;;;;;;2.80;70.74;100241.75;10404178;28;20050;-71
2022/01/27 12:11:55;;;;;;;18.42;16.52;;;;;;;2.78;71.29;100264.25;10418746;28;20043;-71
2022/01/27 12:17:21;;;;;;;18.98;16.15;;;;;;;2.81;72.15;100247.81;10420689;28;20092;-70
2022/01/27 12:22:27;;;;;;;18.08;15.90;;;;;;;2.70;73.24;100247.75;10401227;28;20046;-71
2022/01/27 12:27:30;;;;;;;20.63;16.67;;;;;;;2.76;73.72;100214.91;10399703;28;20045;-70
2022/01/27 12:32:55;;;;;;;19.50;15.40;;;;;;;2.74;74.88;100219.22;10400435;28;20052;-71
2022/01/27 12:37:57;;;;;;;17.73;15.85;;;;;;;2.82;75.71;100201.09;10417631;28;20048;-70
2022/01/27 12:43:02;;;;;;;19.25;17.27;;;;;;;2.72;76.34;100195.00;10416917;28;20041;-69
2022/01/27 12:48:12;;;;;;;17.63;15.82;;;;;;;2.72;76.82;100188.94;10417507;28;20045;-70
2022/01/27 12:53:15;;;;;;;17.75;15.88;;;;;;;2.75;76.91;100188.97;10418121;28;20064;-70
2022/01/27 12:58:18;;;;;;;20.85;16.98;;;;;;;2.73;76.28;100191.53;10418790;28;20387;-70
2022/01/27 13:03:21;;;;;;;18.45;16.55;;;;;;;2.84;75.93;100159.56;10417807;28;20060;-70
2022/01/27 13:08:29;;;;;;;21.88;16.00;;;;;;;2.88;76.38;100153.50;10417341;28;20045;-71
2022/01/27 13:13:36;;;;;;;18.92;16.15;;;;;;;2.92;76.61;100156.13;10399508;28;20041;-70
2022/01/27 13:18:49;;;;;;;17.90;16.30;;;;;;;2.93;76.18;100141.41;10416294;28;20049;-71
2022/01/27 13:24:12;;;;;;;16.70;14.10;;;;;;;3.11;75.83;100132.75;10414816;28;20041;-70
2022/01/27 13:29:17;;;;;;;15.93;14.30;;;;;;;3.07;75.85;100147.47;10414972;28;20053;-71
2022/01/27 13:34:18;;;;;;;15.48;13.90;;;;;;;3.04;76.21;100143.13;10416299;28;20045;-70
2022/01/27 13:39:36;;;;;;;15.70;14.18;;;;;;;3.04;76.49;100137.06;10396434;28;20491;-72
2022/01/27 13:44:50;;;;;;;;;;;;;;;3.10;77.62;100147.47;10397620;28;20049;-71
2022/01/27 13:50:06;;;;;;;14.30;12.80;;;;;;;3.14;77.85;100138.78;10413935;28;19964;-71
2022/01/27 13:55:11;;;;;;;13.23;11.85;;;;;;;3.20;79.81;100144.00;10414172;28;20095;-71
2022/01/27 14:00:22;;;;;;;18.83;13.10;;;;;;;3.19;79.78;100128.44;10414844;28;20046;-70
2022/01/27 14:05:23;;;;;;;14.00;12.60;;;;;;;3.07;80.42;100131.03;10413888;28;20053;-71
2022/01/27 14:10:29;;;;;;;12.88;11.57;;;;;;;2.98;81.33;100119.75;10414112;28;20042;-71
2022/01/27 14:15:35;;;;;;;13.70;11.15;;;;;;;3.01;81.66;100131.84;10413319;28;20041;-71
2022/01/27 14:20:49;;;;;;;11.13;10.02;;;;;;;3.15;80.50;100150.94;10413902;28;20132;-71
2022/01/27 14:26:05;;;;;;;9.75;8.85;;;;;;;3.09;81.30;100131.88;10414065;28;20522;-71
2022/01/27 14:31:06;;;;;;;9.52;8.63;;;;;;;3.07;81.56;100112.84;10396914;28;20042;-71
2022/01/27 14:36:09;;;;;;;9.63;8.63;;;;;;;3.12;80.93;100124.09;10403097;28;20054;-71
2022/01/27 14:41:11;;;;;;;9.45;8.40;;;;;;;3.10;80.95;100131.91;10420971;28;20124;-71
2022/01/27 14:46:17;;;;;;;8.55;7.70;;;;;;;3.21;80.44;100117.16;10421387;28;20052;-71
2022/01/27 14:51:21;;;;;;;9.23;8.32;;;;;;;3.33;79.77;100111.09;10421844;28;20048;-70
2022/01/27 14:56:25;;;;;;;13.55;7.00;;;;;;;3.34;79.00;100117.16;10421226;28;20045;-71
2022/01/27 15:01:27;;;;;;;9.77;8.63;;;;;;;3.27;79.35;100121.47;10420902;28;20048;-71
2022/01/27 15:06:30;;;;;;;7.93;6.80;;;;;;;3.37;78.61;100132.75;10419576;28;20047;-71
2022/01/27 15:11:32;;;;;;;8.65;7.85;;;;;;;3.33;79.34;100129.28;10401546;28;20038;-72
2022/01/27 15:21:56;;;;;;;7.63;6.70;;;;;;;3.30;80.16;100131.88;10419582;28;20037;-72
2022/01/27 15:26:58;;;;;;;7.65;6.70;;;;;;;3.24;82.23;100148.34;10420828;28;20492;-72
2022/01/27 15:32:00;;;;;;;6.93;6.32;;;;;;;3.10;83.55;100143.97;10418945;28;20049;-72
2022/01/27 15:37:03;;;;;;;7.80;7.10;;;;;;;3.07;82.83;100138.81;10418129;28;20099;-72
2022/01/27 15:42:05;;;;;;;7.90;7.20;;;;;;;2.96;83.56;100125.81;10416496;28;20096;-72
2022/01/27 15:47:06;;;;;;;6.68;6.13;;;;;;;2.94;83.26;100122.34;10418168;28;20045;-70
2022/01/27 15:52:09;;;;;;;5.95;5.38;;;;;;;3.04;82.48;100108.50;10403401;28;20523;-73
2022/01/27 15:57:11;;;;;;;5.18;4.68;;;;;;;3.19;80.75;100121.50;10413534;28;20088;-72
2022/01/27 16:02:13;;;;;;;6.43;5.82;;;;;;;3.20;80.51;100098.97;10398690;28;20041;-70
2022/01/27 16:07:15;;;;;;;5.72;5.15;;;;;;;3.15;81.00;100095.53;10408541;28;20069;-71
2022/01/27 16:12:17;;;;;;;4.55;4.15;;;;;;;3.24;80.12;100080.78;10388875;28;20043;-71
2022/01/27 16:17:19;;;;;;;5.32;4.82;;;;;;;3.26;79.80;100083.38;10416337;28;20491;-70
2022/01/27 16:22:26;;;;;;;4.47;4.07;;;;;;;3.31;79.69;100075.56;10399005;28;20056;-71
2022/01/27 16:27:28;;;;;;;4.93;4.40;;;;;;;3.28;79.71;100087.72;10416127;28;20501;-70
2022/01/27 16:32:30;;;;;;;5.10;4.60;;;;;;;3.29;79.54;100084.25;10397179;28;20411;-70
2022/01/27 16:37:32;;;;;;;5.30;4.68;;;;;;;3.32;79.68;100092.88;10423395;28;20045;-72
2022/01/27 16:42:33;;;;;;;4.65;3.80;;;;;;;3.41;79.05;100096.38;10453434;28;20037;-71
2022/01/27 16:47:36;;;;;;;4.00;3.60;;;;;;;3.42;79.06;100100.69;10414583;28;20116;-72
2022/01/27 16:52:38;;;;;;;3.53;3.17;;;;;;;3.45;78.58;100094.59;10414803;28;20195;-72
2022/01/27 16:57:40;;;;;;;4.15;3.67;;;;;;;3.49;78.44;100094.59;10405253;28;20053;-73
2022/01/27 17:02:42;;;;;;;3.65;3.35;;;;;;;3.55;77.43;100080.75;10401676;28;20387;-72
2022/01/27 17:07:44;;;;;;;3.72;2.85;;;;;;;3.52;77.85;100060.81;10414400;28;20111;-73
2022/01/27 17:12:46;;;;;;;3.05;2.67;;;;;;;3.60;77.22;100072.94;10396590;28;20406;-74
2022/01/27 17:17:48;;;;;;;3.13;2.72;;;;;;;3.59;77.28;100071.19;10415306;28;20037;-72
2022/01/27 17:22:50;;;;;;;3.03;2.72;;;;;;;3.63;77.49;100072.91;10414104;28;20045;-72
2022/01/27 17:27:51;;;;;;;3.60;3.30;;;;;;;3.73;76.53;100069.41;10414082;28;20074;-72
2022/01/27 17:32:54;;;;;;;3.33;2.60;;;;;;;3.78;76.67;100062.47;10413300;28;20107;-72
2022/01/27 17:37:56;;;;;;;2.90;2.60;;;;;;;3.87;76.12;100054.63;10395639;28;20053;-72
2022/01/27 17:43:05;;;;;;;2.40;2.20;;;;;;;3.84;76.06;100056.38;10423462;28;20061;-72
2022/01/27 17:48:07;;;;;;;2.63;2.20;;;;;;;3.90;75.59;100044.22;10436892;28;20051;-72
2022/01/27 17:53:08;;;;;;;3.13;2.42;;;;;;;3.89;75.47;100068.47;10455537;28;20041;-72
2022/01/27 17:58:10;;;;;;;2.70;2.45;;;;;;;3.96;74.91;100041.56;10454793;28;20045;-71
2022/01/27 18:03:11;;;;;;;2.22;2.03;;;;;;;3.84;75.50;100046.81;10454273;28;20044;-71
2022/01/27 18:08:13;;;;;;;2.42;2.20;;;;;;;3.80;75.21;100051.16;10425002;28;20059;-72
2022/01/27 18:13:17;;;;;;;2.22;1.98;;;;;;;3.78;75.49;100008.72;10444136;28;20045;-71
2022/01/27 18:18:19;;;;;;;2.20;1.90;;;;;;;3.84;75.28;100015.63;10462008;28;20044;-72
2022/01/27 18:23:22;;;;;;;2.25;2.00;;;;;;;3.89;74.95;100011.25;10461927;28;20041;-72
2022/01/27 18:28:23;;;;;;;2.38;2.17;;;;;;;3.74;75.45;99993.16;10462186;28;20052;-72
2022/01/27 18:33:25;;;;;;;2.05;1.90;;;;;;;3.74;75.86;99994.00;10462492;28;20402;-72
2022/01/27 18:38:26;;;;;;;2.50;1.88;;;;;;;3.82;75.70;99977.53;10461155;28;20067;-71
2022/01/27 18:43:28;;;;;;;2.08;1.70;;;;;;;3.86;75.23;99955.81;10443362;28;20048;-72
2022/01/27 18:48:31;;;;;;;2.13;1.95;;;;;;;4.06;74.28;99969.56;10460891;28;20052;-72
2022/01/27 18:53:34;;;;;;;2.65;1.90;;;;;;;4.05;74.64;99984.31;10460103;28;20044;-72
2022/01/27 18:58:36;;;;;;;2.30;1.95;;;;;;;4.04;74.77;99979.97;10460049;28;20053;-72
2022/01/27 19:03:37;;;;;;;3.15;2.15;;;;;;;4.08;74.41;99991.25;10459905;28;20037;-72
2022/01/27 19:08:39;;;;;;;2.03;1.85;;;;;;;4.08;74.68;99973.03;10459649;28;20049;-72
2022/01/27 19:13:40;;;;;;;2.13;1.73;;;;;;;4.23;74.24;99990.25;10459916;28;20037;-72
2022/01/27 19:18:45;;;;;;;2.72;2.05;;;;;;;4.16;75.81;100018.06;10472850;23;20041;-74
2022/01/27 19:23:50;;;;;;;2.50;1.88;;;;;;;3.86;79.07;99997.44;10471697;28;20069;-75
2022/01/27 19:29:12;;;;;;;3.42;3.13;;;;;;;3.70;82.21;100009.63;10469564;28;20052;-76
2022/01/27 19:34:15;;;;;;;2.63;2.30;;;;;;;3.59;83.22;100025.28;10478397;28;20041;-77
2022/01/27 19:39:17;;;;;;;3.28;2.97;;;;;;;3.41;84.76;100031.41;10481073;28;20064;-78
2022/01/27 19:44:19;;;;;;;2.80;2.40;;;;;;;3.36;85.11;100033.13;10483198;28;20049;-78
2022/01/27 19:49:21;;;;;;;3.42;3.13;;;;;;;3.19;86.47;100034.91;10479938;28;20040;-77
2022/01/27 19:54:25;;;;;;;3.17;2.88;;;;;;;3.22;86.12;100046.16;10479882;28;20044;-77
2022/01/27 19:59:27;;;;;;;3.10;2.80;;;;;;;3.20;86.21;100047.91;10480717;28;20041;-78
2022/01/27 20:04:28;;;;;;;3.30;3.00;;;;;;;3.11;87.49;100049.66;10476947;28;20056;-78
2022/01/27 20:09:31;;;;;;;3.40;3.10;;;;;;;3.00;88.77;100044.44;10484330;28;20581;-78
2022/01/27 20:14:33;;;;;;;3.30;3.00;;;;;;;2.83;90.47;100051.38;10484510;28;20393;-79
2022/01/27 20:19:38;;;;;;;3.90;3.60;;;;;;;2.77;90.84;100054.84;10484938;28;20048;-78
2022/01/27 20:24:40;;;;;;;4.20;3.80;;;;;;;2.81;91.03;100037.53;10486193;28;20037;-80
2022/01/27 20:29:42;;;;;;;4.63;3.97;;;;;;;2.82;91.35;100032.34;10483093;28;20045;-78
2022/01/27 20:34:44;;;;;;;4.95;4.55;;;;;;;2.92;90.60;100043.59;10486457;28;20074;-79
2022/01/27 20:39:46;;;;;;;5.07;4.68;;;;;;;2.97;90.71;100027.16;10489322;28;20048;-79
2022/01/27 20:44:50;;;;;;;4.05;3.75;;;;;;;2.95;91.04;100028.00;10483478;28;20049;-78
2022/01/27 20:49:52;;;;;;;4.95;4.55;;;;;;;2.95;91.32;100028.00;10479678;28;20045;-77
2022/01/27 20:54:54;;;;;;;4.60;4.20;;;;;;;2.98;91.01;100015.91;10482715;28;20052;-77
2022/01/27 20:59:56;;;;;;;5.28;4.78;;;;;;;3.11;90.50;99997.69;10484482;28;20048;-78
2022/01/27 21:04:58;;;;;;;5.97;5.35;;;;;;;3.04;91.12;100023.66;10487284;28;20045;-78
2022/01/27 21:10:00;;;;;;;4.95;4.55;;;;;;;3.18;90.09;100010.66;10483394;28;20045;-78
2022/01/27 21:15:03;;;;;;;5.28;4.88;;;;;;;3.18;90.50;100018.44;10483628;28;20045;-79
2022/01/27 21:20:08;;;;;;;5.05;4.63;;;;;;;3.32;90.61;100049.63;10467983;28;20095;-78
2022/01/27 21:25:11;;;;;;;6.30;5.80;;;;;;;3.20;92.56;100049.63;10483445;28;20068;-78
2022/01/27 21:30:13;;;;;;;5.22;4.78;;;;;;;3.22;91.22;100050.47;10482186;28;20105;-78
2022/01/27 21:35:14;;;;;;;3.95;3.65;;;;;;;3.27;90.29;100053.94;10483817;28;20045;-78
2022/01/27 21:40:16;;;;;;;6.18;3.60;;;;;;;3.31;89.70;100055.66;10482278;28;20049;-78
2022/01/27 21:45:18;;;;;;;4.18;3.72;;;;;;;3.27;89.55;100065.19;10495709;28;20048;-78
2022/01/27 21:50:20;;;;;;;6.10;3.85;;;;;;;3.29;88.55;100068.66;10492408;28;20041;-79
2022/01/27 21:55:22;;;;;;;3.58;3.28;;;;;;;3.42;87.65;100079.03;10487786;28;20041;-79
2022/01/27 22:00:27;;;;;;;3.55;3.10;;;;;;;3.27;87.57;100067.78;10491460;28;20383;-78
2022/01/27 22:05:30;;;;;;;4.80;3.80;;;;;;;3.27;87.67;100085.09;10490251;28;20104;-79
2022/01/27 22:10:32;;;;;;;3.67;3.30;;;;;;;3.22;88.25;100084.25;10484429;28;20045;-79
2022/01/27 22:15:33;;;;;;;6.07;4.30;;;;;;;3.19;87.78;100095.53;10489177;28;20044;-78
2022/01/27 22:20:35;;;;;;;5.43;2.75;;;;;;;3.36;85.94;100100.69;10492798;28;20048;-78
2022/01/27 22:25:37;;;;;;;5.30;2.78;;;;;;;3.49;84.37;100101.53;10491942;28;20056;-79
2022/01/27 22:30:39;;;;;;;5.15;2.20;;;;;;;3.65;82.88;100089.38;10485867;28;20490;-78
2022/01/27 22:35:40;;;;;;;3.80;2.08;;;;;;;3.75;82.93;100089.31;10483845;28;20070;-79
2022/01/27 22:40:42;;;;;;;4.97;2.20;;;;;;;3.77;82.44;100081.53;10488520;28;20071;-77
2022/01/27 22:45:44;;;;;;;5.25;2.42;;;;;;;3.78;82.69;100093.66;10491455;28;20391;-77
2022/01/27 22:50:46;;;;;;;10.35;2.83;;;;;;;3.83;83.23;100091.03;10485313;28;20049;-78
2022/01/27 22:55:47;;;;;;;5.60;2.30;;;;;;;3.69;84.33;100067.69;10480906;28;20139;-78
2022/01/27 23:00:49;;;;;;;5.57;2.60;;;;;;;3.90;83.33;100077.16;10482447;28;20112;-77
2022/01/27 23:05:51;;;;;;;3.80;1.95;;;;;;;3.84;83.41;100080.63;10484891;28;20470;-77
2022/01/27 23:10:53;;;;;;;2.63;2.08;;;;;;;3.91;82.78;100090.16;10486995;28;20041;-78
2022/01/27 23:21:29;;;;;;;4.05;1.50;;;;;;;4.03;80.46;100082.31;10488660;28;20045;-79
2022/01/27 23:26:42;;;;;;;3.88;1.27;;;;;;;4.04;79.75;100070.16;10485012;28;20433;-77
2022/01/27 23:31:48;;;;;;;2.78;1.30;;;;;;;4.07;79.37;100103.06;10477170;28;20041;-77
2022/01/27 23:37:04;;;;;;;3.83;1.42;;;;;;;4.13;79.45;100098.72;10476152;28;20052;-77
2022/01/27 23:42:22;;;;;;;3.40;1.50;;;;;;;3.94;80.62;100102.25;10476505;28;20048;-77
2022/01/27 23:52:51;;;;;;;5.85;1.20;;;;;;;3.98;77.70;100088.38;10479985;28;20037;-77
2022/01/27 23:58:06;;;;;;;2.53;0.75;;;;;;;4.00;75.10;100092.72;10470953;28;20059;-78
